sensor_id;sensor_type;location;lat;lon;timestamp;temperature;humidity
23691;DHT22;43867;50.836;4.364;2022-07-23T00:01:31;17.50;99.90
23691;DHT22;43867;50.836;4.364;2022-07-23T00:03:57;17.30;99.90
23691;DHT22;43867;50.836;4.364;2022-07-23T00:06:23;17.50;99.90
23691;DHT22;43867;50.836;4.364;2022-07-23T00:08:49;17.50;99.90
23691;DHT22;43867;50.836;4.364;2022-07-23T00:11:14;17.20;99.90
23691;DHT22;43867;50.836;4.364;2022-07-23T00:13:40;17.20;99.90
23691;DHT22;43867;50.836;4.364;2022-07-23T00:16:05;17.20;99.90
23691;DHT22;43867;50.836;4.364;2022-07-23T00:18:31;17.10;99.90
23691;DHT22;43867;50.836;4.364;2022-07-23T00:20:57;17.00;99.90
23691;DHT22;43867;50.836;4.364;2022-07-23T00:23:22;17.00;99.90
23691;DHT22;43867;50.836;4.364;2022-07-23T00:25:50;17.00;99.90
23691;DHT22;43867;50.836;4.364;2022-07-23T00:28:16;17.10;99.90
23691;DHT22;43867;50.836;4.364;2022-07-23T00:30:43;17.20;99.90
23691;DHT22;43867;50.836;4.364;2022-07-23T00:33:09;17.20;99.90
23691;DHT22;43867;50.836;4.364;2022-07-23T00:35:35;17.20;99.90
23691;DHT22;43867;50.836;4.364;2022-07-23T00:38:01;17.20;99.90
23691;DHT22;43867;50.836;4.364;2022-07-23T00:40:27;17.40;99.90
23691;DHT22;43867;50.836;4.364;2022-07-23T00:42:53;17.30;99.90
23691;DHT22;43867;50.836;4.364;2022-07-23T00:45:19;17.20;99.90
23691;DHT22;43867;50.836;4.364;2022-07-23T00:47:45;17.20;99.90
23691;DHT22;43867;50.836;4.364;2022-07-23T00:50:11;17.10;99.90
23691;DHT22;43867;50.836;4.364;2022-07-23T00:52:37;17.10;99.90
23691;DHT22;43867;50.836;4.364;2022-07-23T00:55:04;17.30;99.90
23691;DHT22;43867;50.836;4.364;2022-07-23T00:57:29;17.30;99.90
23691;DHT22;43867;50.836;4.364;2022-07-23T00:59:55;17.10;99.90
23691;DHT22;43867;50.836;4.364;2022-07-23T01:02:20;16.90;99.90
23691;DHT22;43867;50.836;4.364;2022-07-23T01:04:46;17.00;99.90
23691;DHT22;43867;50.836;4.364;2022-07-23T01:07:11;17.10;99.90
23691;DHT22;43867;50.836;4.364;2022-07-23T01:09:37;16.90;99.90
23691;DHT22;43867;50.836;4.364;2022-07-23T01:12:03;17.00;99.90
23691;DHT22;43867;50.836;4.364;2022-07-23T01:14:28;17.20;99.90
23691;DHT22;43867;50.836;4.364;2022-07-23T01:16:54;17.20;99.90
23691;DHT22;43867;50.836;4.364;2022-07-23T01:19:19;17.20;99.90
23691;DHT22;43867;50.836;4.364;2022-07-23T01:21:49;17.00;99.90
23691;DHT22;43867;50.836;4.364;2022-07-23T01:24:15;16.90;99.90
23691;DHT22;43867;50.836;4.364;2022-07-23T01:26:44;16.80;99.90
23691;DHT22;43867;50.836;4.364;2022-07-23T01:29:09;16.80;99.90
23691;DHT22;43867;50.836;4.364;2022-07-23T01:31:35;16.90;99.90
23691;DHT22;43867;50.836;4.364;2022-07-23T01:34:00;16.90;99.90
23691;DHT22;43867;50.836;4.364;2022-07-23T01:36:26;16.80;99.90
23691;DHT22;43867;50.836;4.364;2022-07-23T01:38:52;16.70;99.90
23691;DHT22;43867;50.836;4.364;2022-07-23T01:41:17;16.60;99.90
23691;DHT22;43867;50.836;4.364;2022-07-23T01:43:43;16.50;99.90
23691;DHT22;43867;50.836;4.364;2022-07-23T01:46:08;16.40;99.90
23691;DHT22;43867;50.836;4.364;2022-07-23T01:48:34;16.40;99.90
23691;DHT22;43867;50.836;4.364;2022-07-23T01:50:59;16.40;99.90
23691;DHT22;43867;50.836;4.364;2022-07-23T01:53:25;16.40;99.90
23691;DHT22;43867;50.836;4.364;2022-07-23T01:55:50;16.30;99.90
23691;DHT22;43867;50.836;4.364;2022-07-23T01:58:16;16.20;99.90
23691;DHT22;43867;50.836;4.364;2022-07-23T02:00:41;16.40;99.90
23691;DHT22;43867;50.836;4.364;2022-07-23T02:03:07;16.40;99.90
23691;DHT22;43867;50.836;4.364;2022-07-23T02:05:32;16.40;99.90
23691;DHT22;43867;50.836;4.364;2022-07-23T02:07:58;16.50;99.90
23691;DHT22;43867;50.836;4.364;2022-07-23T02:10:24;16.40;99.90
23691;DHT22;43867;50.836;4.364;2022-07-23T02:12:50;16.30;99.90
23691;DHT22;43867;50.836;4.364;2022-07-23T02:15:15;16.30;99.90
23691;DHT22;43867;50.836;4.364;2022-07-23T02:17:41;16.30;99.90
23691;DHT22;43867;50.836;4.364;2022-07-23T02:20:07;16.20;99.90
23691;DHT22;43867;50.836;4.364;2022-07-23T02:22:34;16.30;99.90
23691;DHT22;43867;50.836;4.364;2022-07-23T02:24:59;16.20;99.90
23691;DHT22;43867;50.836;4.364;2022-07-23T02:27:25;16.20;99.90
23691;DHT22;43867;50.836;4.364;2022-07-23T02:29:50;16.20;99.90
23691;DHT22;43867;50.836;4.364;2022-07-23T02:32:16;16.20;99.90
23691;DHT22;43867;50.836;4.364;2022-07-23T02:34:43;16.30;99.90
23691;DHT22;43867;50.836;4.364;2022-07-23T02:37:09;16.20;99.90
23691;DHT22;43867;50.836;4.364;2022-07-23T02:39:35;16.40;99.90
23691;DHT22;43867;50.836;4.364;2022-07-23T02:42:01;16.30;99.90
23691;DHT22;43867;50.836;4.364;2022-07-23T02:44:26;16.30;99.90
23691;DHT22;43867;50.836;4.364;2022-07-23T02:46:52;16.30;99.90
23691;DHT22;43867;50.836;4.364;2022-07-23T02:49:17;16.30;99.90
23691;DHT22;43867;50.836;4.364;2022-07-23T02:51:42;16.30;99.90
23691;DHT22;43867;50.836;4.364;2022-07-23T02:54:08;16.30;99.90
23691;DHT22;43867;50.836;4.364;2022-07-23T02:56:34;16.40;99.90
23691;DHT22;43867;50.836;4.364;2022-07-23T02:58:59;16.50;99.90
23691;DHT22;43867;50.836;4.364;2022-07-23T03:01:25;16.50;99.90
23691;DHT22;43867;50.836;4.364;2022-07-23T03:03:51;16.40;99.90
23691;DHT22;43867;50.836;4.364;2022-07-23T03:06:16;16.40;99.90
23691;DHT22;43867;50.836;4.364;2022-07-23T03:08:42;16.30;99.90
23691;DHT22;43867;50.836;4.364;2022-07-23T03:11:08;16.30;99.90
23691;DHT22;43867;50.836;4.364;2022-07-23T03:13:40;16.30;99.90
23691;DHT22;43867;50.836;4.364;2022-07-23T03:16:05;16.20;99.90
23691;DHT22;43867;50.836;4.364;2022-07-23T03:18:31;16.20;99.90
23691;DHT22;43867;50.836;4.364;2022-07-23T03:20:56;16.20;99.90
23691;DHT22;43867;50.836;4.364;2022-07-23T03:23:22;16.30;99.90
23691;DHT22;43867;50.836;4.364;2022-07-23T03:25:47;16.40;99.90
23691;DHT22;43867;50.836;4.364;2022-07-23T03:28:16;16.30;99.90
23691;DHT22;43867;50.836;4.364;2022-07-23T03:30:42;16.30;99.90
23691;DHT22;43867;50.836;4.364;2022-07-23T03:33:08;16.30;99.90
23691;DHT22;43867;50.836;4.364;2022-07-23T03:35:34;16.30;99.90
23691;DHT22;43867;50.836;4.364;2022-07-23T03:37:59;16.20;99.90
23691;DHT22;43867;50.836;4.364;2022-07-23T03:40:25;16.10;99.90
23691;DHT22;43867;50.836;4.364;2022-07-23T03:42:51;16.20;99.90
23691;DHT22;43867;50.836;4.364;2022-07-23T03:45:16;16.30;99.90
23691;DHT22;43867;50.836;4.364;2022-07-23T03:47:42;16.20;99.90
23691;DHT22;43867;50.836;4.364;2022-07-23T03:50:08;16.30;99.90
23691;DHT22;43867;50.836;4.364;2022-07-23T03:52:34;16.30;99.90
23691;DHT22;43867;50.836;4.364;2022-07-23T03:55:00;16.30;99.90
23691;DHT22;43867;50.836;4.364;2022-07-23T03:57:26;16.20;99.90
23691;DHT22;43867;50.836;4.364;2022-07-23T03:59:51;16.10;99.90
23691;DHT22;43867;50.836;4.364;2022-07-23T04:02:17;16.10;99.90
23691;DHT22;43867;50.836;4.364;2022-07-23T04:04:42;16.20;99.90
23691;DHT22;43867;50.836;4.364;2022-07-23T04:07:08;16.20;99.90
23691;DHT22;43867;50.836;4.364;2022-07-23T04:09:33;16.10;99.90
23691;DHT22;43867;50.836;4.364;2022-07-23T04:11:59;16.30;99.90
23691;DHT22;43867;50.836;4.364;2022-07-23T04:14:24;16.60;99.90
23691;DHT22;43867;50.836;4.364;2022-07-23T04:16:50;16.60;99.90
23691;DHT22;43867;50.836;4.364;2022-07-23T04:19:15;16.60;99.90
23691;DHT22;43867;50.836;4.364;2022-07-23T04:21:41;16.70;99.90
23691;DHT22;43867;50.836;4.364;2022-07-23T04:24:06;16.60;99.90
23691;DHT22;43867;50.836;4.364;2022-07-23T04:26:32;16.40;99.90
23691;DHT22;43867;50.836;4.364;2022-07-23T04:28:58;16.50;99.90
23691;DHT22;43867;50.836;4.364;2022-07-23T04:31:23;16.40;99.90
23691;DHT22;43867;50.836;4.364;2022-07-23T04:33:49;16.40;99.90
23691;DHT22;43867;50.836;4.364;2022-07-23T04:36:15;16.30;99.90
23691;DHT22;43867;50.836;4.364;2022-07-23T04:38:41;16.40;99.90
23691;DHT22;43867;50.836;4.364;2022-07-23T04:41:07;16.30;99.90
23691;DHT22;43867;50.836;4.364;2022-07-23T04:43:32;16.40;99.90
23691;DHT22;43867;50.836;4.364;2022-07-23T04:45:58;16.30;99.90
23691;DHT22;43867;50.836;4.364;2022-07-23T04:48:23;16.50;99.90
23691;DHT22;43867;50.836;4.364;2022-07-23T04:50:49;16.60;99.90
23691;DHT22;43867;50.836;4.364;2022-07-23T04:53:14;16.60;99.90
23691;DHT22;43867;50.836;4.364;2022-07-23T04:55:40;16.70;99.90
23691;DHT22;43867;50.836;4.364;2022-07-23T04:58:05;16.90;99.90
23691;DHT22;43867;50.836;4.364;2022-07-23T05:00:31;17.10;99.90
23691;DHT22;43867;50.836;4.364;2022-07-23T05:02:56;17.00;99.90
23691;DHT22;43867;50.836;4.364;2022-07-23T05:05:22;16.80;99.90
23691;DHT22;43867;50.836;4.364;2022-07-23T05:07:47;16.60;99.90
23691;DHT22;43867;50.836;4.364;2022-07-23T05:10:13;16.50;99.90
23691;DHT22;43867;50.836;4.364;2022-07-23T05:12:38;16.70;99.90
23691;DHT22;43867;50.836;4.364;2022-07-23T05:15:04;16.90;99.90
23691;DHT22;43867;50.836;4.364;2022-07-23T05:17:29;17.00;99.90
23691;DHT22;43867;50.836;4.364;2022-07-23T05:19:55;17.00;99.90
23691;DHT22;43867;50.836;4.364;2022-07-23T05:22:20;17.10;99.90
23691;DHT22;43867;50.836;4.364;2022-07-23T05:24:46;17.10;99.90
23691;DHT22;43867;50.836;4.364;2022-07-23T05:27:11;17.40;99.90
23691;DHT22;43867;50.836;4.364;2022-07-23T05:29:37;17.40;99.90
23691;DHT22;43867;50.836;4.364;2022-07-23T05:32:02;17.30;99.90
23691;DHT22;43867;50.836;4.364;2022-07-23T05:34:28;17.50;99.90
23691;DHT22;43867;50.836;4.364;2022-07-23T05:36:54;17.60;99.90
23691;DHT22;43867;50.836;4.364;2022-07-23T05:39:19;17.70;99.90
23691;DHT22;43867;50.836;4.364;2022-07-23T05:41:45;17.50;99.90
23691;DHT22;43867;50.836;4.364;2022-07-23T05:44:10;17.50;99.90
23691;DHT22;43867;50.836;4.364;2022-07-23T05:46:36;17.60;99.90
23691;DHT22;43867;50.836;4.364;2022-07-23T05:49:01;17.70;99.90
23691;DHT22;43867;50.836;4.364;2022-07-23T05:51:27;17.80;99.90
23691;DHT22;43867;50.836;4.364;2022-07-23T05:53:52;18.00;99.90
23691;DHT22;43867;50.836;4.364;2022-07-23T05:56:18;17.90;99.90
23691;DHT22;43867;50.836;4.364;2022-07-23T05:58:44;17.90;99.90
23691;DHT22;43867;50.836;4.364;2022-07-23T06:01:09;18.10;99.90
23691;DHT22;43867;50.836;4.364;2022-07-23T06:03:37;18.50;99.90
23691;DHT22;43867;50.836;4.364;2022-07-23T06:06:02;18.90;99.90
23691;DHT22;43867;50.836;4.364;2022-07-23T06:08:28;19.30;99.90
23691;DHT22;43867;50.836;4.364;2022-07-23T06:10:53;18.90;99.90
23691;DHT22;43867;50.836;4.364;2022-07-23T06:13:19;18.90;99.90
23691;DHT22;43867;50.836;4.364;2022-07-23T06:15:44;19.10;99.90
23691;DHT22;43867;50.836;4.364;2022-07-23T06:18:10;19.30;99.90
23691;DHT22;43867;50.836;4.364;2022-07-23T06:20:35;19.50;99.90
23691;DHT22;43867;50.836;4.364;2022-07-23T06:23:01;19.80;99.90
23691;DHT22;43867;50.836;4.364;2022-07-23T06:25:27;20.10;99.90
23691;DHT22;43867;50.836;4.364;2022-07-23T06:27:52;20.20;99.90
23691;DHT22;43867;50.836;4.364;2022-07-23T06:30:18;20.70;99.90
23691;DHT22;43867;50.836;4.364;2022-07-23T06:32:44;20.60;99.90
23691;DHT22;43867;50.836;4.364;2022-07-23T06:35:10;20.70;99.90
23691;DHT22;43867;50.836;4.364;2022-07-23T06:37:35;20.90;99.90
23691;DHT22;43867;50.836;4.364;2022-07-23T06:40:01;20.50;99.90
23691;DHT22;43867;50.836;4.364;2022-07-23T06:42:27;20.20;99.90
23691;DHT22;43867;50.836;4.364;2022-07-23T06:44:53;20.00;99.90
23691;DHT22;43867;50.836;4.364;2022-07-23T06:47:18;19.90;99.90
23691;DHT22;43867;50.836;4.364;2022-07-23T06:49:44;19.80;99.90
23691;DHT22;43867;50.836;4.364;2022-07-23T06:52:09;19.80;99.90
23691;DHT22;43867;50.836;4.364;2022-07-23T06:54:35;20.10;99.90
23691;DHT22;43867;50.836;4.364;2022-07-23T06:57:00;20.40;99.90
23691;DHT22;43867;50.836;4.364;2022-07-23T06:59:26;21.20;99.90
23691;DHT22;43867;50.836;4.364;2022-07-23T07:01:52;21.60;99.90
23691;DHT22;43867;50.836;4.364;2022-07-23T07:04:17;21.40;99.90
23691;DHT22;43867;50.836;4.364;2022-07-23T07:06:43;21.30;99.90
23691;DHT22;43867;50.836;4.364;2022-07-23T07:09:09;21.40;99.90
23691;DHT22;43867;50.836;4.364;2022-07-23T07:11:34;21.70;99.90
23691;DHT22;43867;50.836;4.364;2022-07-23T07:14:00;21.80;99.90
23691;DHT22;43867;50.836;4.364;2022-07-23T07:16:25;22.30;99.90
23691;DHT22;43867;50.836;4.364;2022-07-23T07:18:51;22.20;99.90
23691;DHT22;43867;50.836;4.364;2022-07-23T07:21:16;22.50;99.90
23691;DHT22;43867;50.836;4.364;2022-07-23T07:23:42;22.80;99.90
23691;DHT22;43867;50.836;4.364;2022-07-23T07:26:08;22.60;99.90
23691;DHT22;43867;50.836;4.364;2022-07-23T07:28:34;22.90;99.90
23691;DHT22;43867;50.836;4.364;2022-07-23T07:31:00;22.60;99.90
23691;DHT22;43867;50.836;4.364;2022-07-23T07:33:25;22.60;99.90
23691;DHT22;43867;50.836;4.364;2022-07-23T07:35:51;22.30;99.90
23691;DHT22;43867;50.836;4.364;2022-07-23T07:38:16;22.70;99.90
23691;DHT22;43867;50.836;4.364;2022-07-23T07:40:42;23.20;99.90
23691;DHT22;43867;50.836;4.364;2022-07-23T07:43:07;23.20;99.90
23691;DHT22;43867;50.836;4.364;2022-07-23T07:45:33;23.10;99.90
23691;DHT22;43867;50.836;4.364;2022-07-23T07:47:58;23.30;99.90
23691;DHT22;43867;50.836;4.364;2022-07-23T07:50:24;23.80;99.90
23691;DHT22;43867;50.836;4.364;2022-07-23T07:52:50;24.10;99.90
23691;DHT22;43867;50.836;4.364;2022-07-23T07:55:15;23.80;99.90
23691;DHT22;43867;50.836;4.364;2022-07-23T07:57:41;24.00;99.90
23691;DHT22;43867;50.836;4.364;2022-07-23T08:00:07;24.40;99.90
23691;DHT22;43867;50.836;4.364;2022-07-23T08:02:44;24.40;99.90
23691;DHT22;43867;50.836;4.364;2022-07-23T08:05:09;24.60;99.20
23691;DHT22;43867;50.836;4.364;2022-07-23T08:07:36;24.30;99.90
23691;DHT22;43867;50.836;4.364;2022-07-23T08:10:02;23.30;99.90
23691;DHT22;43867;50.836;4.364;2022-07-23T08:12:37;23.80;99.90
23691;DHT22;43867;50.836;4.364;2022-07-23T08:15:03;24.10;99.90
23691;DHT22;43867;50.836;4.364;2022-07-23T08:17:28;23.70;99.90
23691;DHT22;43867;50.836;4.364;2022-07-23T08:19:54;23.40;99.90
23691;DHT22;43867;50.836;4.364;2022-07-23T08:22:19;23.30;99.90
23691;DHT22;43867;50.836;4.364;2022-07-23T08:24:45;23.50;99.90
23691;DHT22;43867;50.836;4.364;2022-07-23T08:27:10;23.90;99.90
23691;DHT22;43867;50.836;4.364;2022-07-23T08:29:36;24.60;99.90
23691;DHT22;43867;50.836;4.364;2022-07-23T08:32:01;24.30;99.00
23691;DHT22;43867;50.836;4.364;2022-07-23T08:34:27;24.60;99.90
23691;DHT22;43867;50.836;4.364;2022-07-23T08:36:52;25.00;99.00
23691;DHT22;43867;50.836;4.364;2022-07-23T08:39:18;25.20;97.50
23691;DHT22;43867;50.836;4.364;2022-07-23T08:41:43;25.10;97.00
23691;DHT22;43867;50.836;4.364;2022-07-23T08:44:09;24.50;99.30
23691;DHT22;43867;50.836;4.364;2022-07-23T08:46:35;24.30;99.20
23691;DHT22;43867;50.836;4.364;2022-07-23T08:49:01;24.80;99.40
23691;DHT22;43867;50.836;4.364;2022-07-23T08:51:27;25.00;97.70
23691;DHT22;43867;50.836;4.364;2022-07-23T08:53:55;25.10;97.80
23691;DHT22;43867;50.836;4.364;2022-07-23T08:56:21;25.30;96.60
23691;DHT22;43867;50.836;4.364;2022-07-23T08:58:47;25.40;96.60
23691;DHT22;43867;50.836;4.364;2022-07-23T09:01:12;25.40;98.00
23691;DHT22;43867;50.836;4.364;2022-07-23T09:03:39;25.90;96.70
23691;DHT22;43867;50.836;4.364;2022-07-23T09:06:05;26.10;94.10
23691;DHT22;43867;50.836;4.364;2022-07-23T09:08:40;26.40;92.20
23691;DHT22;43867;50.836;4.364;2022-07-23T09:11:06;26.50;93.00
23691;DHT22;43867;50.836;4.364;2022-07-23T09:13:46;26.40;89.40
23691;DHT22;43867;50.836;4.364;2022-07-23T09:16:16;25.90;90.80
23691;DHT22;43867;50.836;4.364;2022-07-23T09:21:14;25.90;90.70
23691;DHT22;43867;50.836;4.364;2022-07-23T09:23:40;25.90;90.60
23691;DHT22;43867;50.836;4.364;2022-07-23T09:26:20;25.90;90.70
23691;DHT22;43867;50.836;4.364;2022-07-23T09:29:05;26.10;90.80
23691;DHT22;43867;50.836;4.364;2022-07-23T09:31:41;26.30;88.00
23691;DHT22;43867;50.836;4.364;2022-07-23T09:34:14;26.20;89.40
23691;DHT22;43867;50.836;4.364;2022-07-23T09:36:41;26.10;90.80
23691;DHT22;43867;50.836;4.364;2022-07-23T09:39:07;26.40;88.10
23691;DHT22;43867;50.836;4.364;2022-07-23T09:41:33;26.20;89.40
23691;DHT22;43867;50.836;4.364;2022-07-23T09:43:59;26.20;89.20
23691;DHT22;43867;50.836;4.364;2022-07-23T09:46:31;26.50;89.00
23691;DHT22;43867;50.836;4.364;2022-07-23T09:48:56;25.90;85.60
23691;DHT22;43867;50.836;4.364;2022-07-23T09:51:22;26.00;85.20
23691;DHT22;43867;50.836;4.364;2022-07-23T09:53:55;26.00;85.10
23691;DHT22;43867;50.836;4.364;2022-07-23T09:56:20;26.30;81.70
23691;DHT22;43867;50.836;4.364;2022-07-23T09:58:49;26.60;81.50
23691;DHT22;43867;50.836;4.364;2022-07-23T10:01:15;27.00;78.60
23691;DHT22;43867;50.836;4.364;2022-07-23T10:03:42;27.00;76.90
23691;DHT22;43867;50.836;4.364;2022-07-23T10:06:08;26.30;78.30
23691;DHT22;43867;50.836;4.364;2022-07-23T10:08:34;26.30;78.40
23691;DHT22;43867;50.836;4.364;2022-07-23T10:11:00;26.40;77.50
23691;DHT22;43867;50.836;4.364;2022-07-23T10:13:26;25.90;77.10
23691;DHT22;43867;50.836;4.364;2022-07-23T10:16:09;25.50;79.80
23691;DHT22;43867;50.836;4.364;2022-07-23T10:18:35;25.40;81.40
23691;DHT22;43867;50.836;4.364;2022-07-23T10:21:01;25.50;84.20
23691;DHT22;43867;50.836;4.364;2022-07-23T10:23:35;25.50;84.60
23691;DHT22;43867;50.836;4.364;2022-07-23T10:28:50;26.10;83.70
23691;DHT22;43867;50.836;4.364;2022-07-23T10:31:27;26.40;82.50
23691;DHT22;43867;50.836;4.364;2022-07-23T10:34:12;26.30;81.50
23691;DHT22;43867;50.836;4.364;2022-07-23T10:36:42;26.10;81.10
23691;DHT22;43867;50.836;4.364;2022-07-23T10:41:40;25.80;83.80
23691;DHT22;43867;50.836;4.364;2022-07-23T10:44:16;25.80;81.20
23691;DHT22;43867;50.836;4.364;2022-07-23T10:46:55;25.50;84.00
23691;DHT22;43867;50.836;4.364;2022-07-23T10:49:40;25.50;81.20
23691;DHT22;43867;50.836;4.364;2022-07-23T10:52:23;25.70;83.00
23691;DHT22;43867;50.836;4.364;2022-07-23T10:57:16;25.70;83.10
23691;DHT22;43867;50.836;4.364;2022-07-23T11:02:37;25.60;81.10
23691;DHT22;43867;50.836;4.364;2022-07-23T11:05:04;25.70;81.20
23691;DHT22;43867;50.836;4.364;2022-07-23T11:07:29;25.60;81.00
23691;DHT22;43867;50.836;4.364;2022-07-23T11:09:55;25.50;83.10
23691;DHT22;43867;50.836;4.364;2022-07-23T11:17:32;25.60;81.50
23691;DHT22;43867;50.836;4.364;2022-07-23T11:25:04;25.40;82.50
23691;DHT22;43867;50.836;4.364;2022-07-23T11:27:40;25.50;83.00
23691;DHT22;43867;50.836;4.364;2022-07-23T11:30:06;25.50;82.80
23691;DHT22;43867;50.836;4.364;2022-07-23T11:32:33;25.40;83.10
23691;DHT22;43867;50.836;4.364;2022-07-23T11:35:00;25.40;84.20
23691;DHT22;43867;50.836;4.364;2022-07-23T11:37:33;25.40;83.60
23691;DHT22;43867;50.836;4.364;2022-07-23T11:40:03;25.30;83.10
23691;DHT22;43867;50.836;4.364;2022-07-23T11:42:30;25.50;82.20
23691;DHT22;43867;50.836;4.364;2022-07-23T11:44:55;25.80;82.20
23691;DHT22;43867;50.836;4.364;2022-07-23T11:47:23;26.10;79.70
23691;DHT22;43867;50.836;4.364;2022-07-23T11:49:53;26.10;80.00
23691;DHT22;43867;50.836;4.364;2022-07-23T11:52:18;26.20;78.60
23691;DHT22;43867;50.836;4.364;2022-07-23T11:54:48;26.10;76.00
23691;DHT22;43867;50.836;4.364;2022-07-23T11:57:14;26.20;78.00
23691;DHT22;43867;50.836;4.364;2022-07-23T11:59:40;26.40;76.80
23691;DHT22;43867;50.836;4.364;2022-07-23T12:02:06;26.50;75.60
23691;DHT22;43867;50.836;4.364;2022-07-23T12:07:04;26.20;73.40
23691;DHT22;43867;50.836;4.364;2022-07-23T12:09:30;26.00;74.80
23691;DHT22;43867;50.836;4.364;2022-07-23T12:11:56;26.00;75.20
23691;DHT22;43867;50.836;4.364;2022-07-23T12:14:22;26.20;76.20
23691;DHT22;43867;50.836;4.364;2022-07-23T12:17:00;26.50;74.60
23691;DHT22;43867;50.836;4.364;2022-07-23T12:19:31;26.70;73.40
23691;DHT22;43867;50.836;4.364;2022-07-23T12:21:57;27.20;71.60
23691;DHT22;43867;50.836;4.364;2022-07-23T12:24:22;27.20;68.70
23691;DHT22;43867;50.836;4.364;2022-07-23T12:27:09;27.20;70.00
23691;DHT22;43867;50.836;4.364;2022-07-23T12:29:35;27.40;69.20
23691;DHT22;43867;50.836;4.364;2022-07-23T12:32:01;27.70;67.20
23691;DHT22;43867;50.836;4.364;2022-07-23T12:34:26;27.80;65.30
23691;DHT22;43867;50.836;4.364;2022-07-23T12:36:52;27.90;66.40
23691;DHT22;43867;50.836;4.364;2022-07-23T12:39:37;27.80;65.00
23691;DHT22;43867;50.836;4.364;2022-07-23T12:42:02;27.50;65.90
23691;DHT22;43867;50.836;4.364;2022-07-23T12:44:28;27.60;64.80
23691;DHT22;43867;50.836;4.364;2022-07-23T12:46:54;27.50;66.50
23691;DHT22;43867;50.836;4.364;2022-07-23T12:49:28;27.20;65.00
23691;DHT22;43867;50.836;4.364;2022-07-23T12:51:57;27.50;65.50
23691;DHT22;43867;50.836;4.364;2022-07-23T12:54:31;27.40;65.80
23691;DHT22;43867;50.836;4.364;2022-07-23T12:56:57;27.50;63.70
23691;DHT22;43867;50.836;4.364;2022-07-23T12:59:23;27.90;64.80
23691;DHT22;43867;50.836;4.364;2022-07-23T13:01:55;27.90;63.40
23691;DHT22;43867;50.836;4.364;2022-07-23T13:04:23;27.90;63.10
23691;DHT22;43867;50.836;4.364;2022-07-23T13:09:18;27.40;62.90
23691;DHT22;43867;50.836;4.364;2022-07-23T13:11:44;27.30;63.60
23691;DHT22;43867;50.836;4.364;2022-07-23T13:14:10;27.40;63.40
23691;DHT22;43867;50.836;4.364;2022-07-23T13:16:36;27.40;64.20
23691;DHT22;43867;50.836;4.364;2022-07-23T13:19:02;27.60;63.20
23691;DHT22;43867;50.836;4.364;2022-07-23T13:21:28;27.90;62.40
23691;DHT22;43867;50.836;4.364;2022-07-23T13:23:54;28.00;61.30
23691;DHT22;43867;50.836;4.364;2022-07-23T13:26:19;28.10;59.80
23691;DHT22;43867;50.836;4.364;2022-07-23T13:28:45;27.90;59.90
23691;DHT22;43867;50.836;4.364;2022-07-23T13:31:10;28.00;61.10
23691;DHT22;43867;50.836;4.364;2022-07-23T13:33:36;27.90;59.90
23691;DHT22;43867;50.836;4.364;2022-07-23T13:36:02;27.70;60.70
23691;DHT22;43867;50.836;4.364;2022-07-23T13:38:28;27.70;60.40
23691;DHT22;43867;50.836;4.364;2022-07-23T13:40:53;27.90;60.70
23691;DHT22;43867;50.836;4.364;2022-07-23T13:43:20;28.10;60.60
23691;DHT22;43867;50.836;4.364;2022-07-23T13:45:46;27.80;60.00
23691;DHT22;43867;50.836;4.364;2022-07-23T13:48:12;27.80;59.60
23691;DHT22;43867;50.836;4.364;2022-07-23T13:50:38;27.70;59.80
23691;DHT22;43867;50.836;4.364;2022-07-23T13:53:04;27.90;59.60
23691;DHT22;43867;50.836;4.364;2022-07-23T13:55:31;27.90;58.90
23691;DHT22;43867;50.836;4.364;2022-07-23T13:57:56;28.30;58.60
23691;DHT22;43867;50.836;4.364;2022-07-23T14:00:22;28.50;57.60
23691;DHT22;43867;50.836;4.364;2022-07-23T14:02:47;28.50;57.30
23691;DHT22;43867;50.836;4.364;2022-07-23T14:05:13;28.30;57.30
23691;DHT22;43867;50.836;4.364;2022-07-23T14:07:39;28.10;58.70
23691;DHT22;43867;50.836;4.364;2022-07-23T14:10:06;28.10;58.80
23691;DHT22;43867;50.836;4.364;2022-07-23T14:12:32;28.00;58.40
23691;DHT22;43867;50.836;4.364;2022-07-23T14:14:57;27.90;58.80
23691;DHT22;43867;50.836;4.364;2022-07-23T14:17:23;27.50;59.50
23691;DHT22;43867;50.836;4.364;2022-07-23T14:19:49;27.30;59.70
23691;DHT22;43867;50.836;4.364;2022-07-23T14:22:15;27.60;61.80
23691;DHT22;43867;50.836;4.364;2022-07-23T14:24:41;27.80;61.40
23691;DHT22;43867;50.836;4.364;2022-07-23T14:27:06;28.20;60.20
23691;DHT22;43867;50.836;4.364;2022-07-23T14:29:32;28.30;59.00
23691;DHT22;43867;50.836;4.364;2022-07-23T14:31:58;28.40;58.40
23691;DHT22;43867;50.836;4.364;2022-07-23T14:34:24;28.30;58.20
23691;DHT22;43867;50.836;4.364;2022-07-23T14:36:50;28.40;58.60
23691;DHT22;43867;50.836;4.364;2022-07-23T14:39:16;28.50;58.70
23691;DHT22;43867;50.836;4.364;2022-07-23T14:41:41;28.60;57.60
23691;DHT22;43867;50.836;4.364;2022-07-23T14:44:07;28.40;57.30
23691;DHT22;43867;50.836;4.364;2022-07-23T14:46:33;28.00;58.00
23691;DHT22;43867;50.836;4.364;2022-07-23T14:48:58;28.30;58.60
23691;DHT22;43867;50.836;4.364;2022-07-23T14:51:24;28.30;57.50
23691;DHT22;43867;50.836;4.364;2022-07-23T14:53:49;28.50;57.40
23691;DHT22;43867;50.836;4.364;2022-07-23T14:56:15;28.60;57.90
23691;DHT22;43867;50.836;4.364;2022-07-23T14:58:41;28.60;57.70
23691;DHT22;43867;50.836;4.364;2022-07-23T15:01:08;28.50;58.20
23691;DHT22;43867;50.836;4.364;2022-07-23T15:03:33;28.50;57.60
23691;DHT22;43867;50.836;4.364;2022-07-23T15:05:59;28.70;57.30
23691;DHT22;43867;50.836;4.364;2022-07-23T15:08:25;28.50;56.80
23691;DHT22;43867;50.836;4.364;2022-07-23T15:10:50;28.40;57.30
23691;DHT22;43867;50.836;4.364;2022-07-23T15:13:16;28.40;57.60
23691;DHT22;43867;50.836;4.364;2022-07-23T15:15:43;28.30;58.00
23691;DHT22;43867;50.836;4.364;2022-07-23T15:18:09;28.00;58.50
23691;DHT22;43867;50.836;4.364;2022-07-23T15:20:34;28.00;58.60
23691;DHT22;43867;50.836;4.364;2022-07-23T15:23:00;28.00;58.70
23691;DHT22;43867;50.836;4.364;2022-07-23T15:25:26;28.20;58.80
23691;DHT22;43867;50.836;4.364;2022-07-23T15:27:51;28.20;57.80
23691;DHT22;43867;50.836;4.364;2022-07-23T15:30:17;28.20;57.20
23691;DHT22;43867;50.836;4.364;2022-07-23T15:32:45;28.30;57.30
23691;DHT22;43867;50.836;4.364;2022-07-23T15:35:10;28.20;56.70
23691;DHT22;43867;50.836;4.364;2022-07-23T15:37:38;28.20;57.30
23691;DHT22;43867;50.836;4.364;2022-07-23T15:40:04;28.30;57.20
23691;DHT22;43867;50.836;4.364;2022-07-23T15:42:31;28.20;57.40
23691;DHT22;43867;50.836;4.364;2022-07-23T15:44:57;28.30;57.40
23691;DHT22;43867;50.836;4.364;2022-07-23T15:47:23;28.40;57.00
23691;DHT22;43867;50.836;4.364;2022-07-23T15:49:49;28.40;57.40
23691;DHT22;43867;50.836;4.364;2022-07-23T15:52:14;28.30;57.70
23691;DHT22;43867;50.836;4.364;2022-07-23T15:54:40;28.40;58.10